sensor_id;sensor_type;location;lat;lon;timestamp;temperature;humidity
29777;DHT22;16677;52.224;7.484;2024-01-30T00:01:49;6.00;99.90
29777;DHT22;16677;52.224;7.484;2024-01-30T00:04:16;6.00;99.90
29777;DHT22;16677;52.224;7.484;2024-01-30T00:06:44;5.90;99.90
29777;DHT22;16677;52.224;7.484;2024-01-30T00:09:11;5.90;99.90
29777;DHT22;16677;52.224;7.484;2024-01-30T00:11:38;5.90;99.90
29777;DHT22;16677;52.224;7.484;2024-01-30T00:14:05;5.90;99.90
29777;DHT22;16677;52.224;7.484;2024-01-30T00:16:31;5.90;99.90
29777;DHT22;16677;52.224;7.484;2024-01-30T00:18:58;5.90;99.90
29777;DHT22;16677;52.224;7.484;2024-01-30T00:21:25;5.80;99.90
29777;DHT22;16677;52.224;7.484;2024-01-30T00:23:55;5.80;99.90
29777;DHT22;16677;52.224;7.484;2024-01-30T00:26:22;5.90;99.90
29777;DHT22;16677;52.224;7.484;2024-01-30T00:28:49;5.70;99.90
29777;DHT22;16677;52.224;7.484;2024-01-30T00:31:16;5.70;99.90
29777;DHT22;16677;52.224;7.484;2024-01-30T00:33:43;5.90;99.90
29777;DHT22;16677;52.224;7.484;2024-01-30T00:36:10;5.90;99.90
29777;DHT22;16677;52.224;7.484;2024-01-30T00:38:37;5.90;99.90
29777;DHT22;16677;52.224;7.484;2024-01-30T00:41:04;5.90;99.90
29777;DHT22;16677;52.224;7.484;2024-01-30T00:43:31;5.90;99.90
29777;DHT22;16677;52.224;7.484;2024-01-30T00:45:58;5.90;99.90
29777;DHT22;16677;52.224;7.484;2024-01-30T00:48:25;5.80;99.90
29777;DHT22;16677;52.224;7.484;2024-01-30T00:50:52;5.80;99.90
29777;DHT22;16677;52.224;7.484;2024-01-30T00:53:19;5.70;99.90
29777;DHT22;16677;52.224;7.484;2024-01-30T00:55:46;5.70;99.90
29777;DHT22;16677;52.224;7.484;2024-01-30T00:58:13;5.70;99.90
29777;DHT22;16677;52.224;7.484;2024-01-30T01:00:40;5.80;99.90
29777;DHT22;16677;52.224;7.484;2024-01-30T01:03:07;5.80;99.90
29777;DHT22;16677;52.224;7.484;2024-01-30T01:05:34;5.90;99.90
29777;DHT22;16677;52.224;7.484;2024-01-30T01:08:01;5.90;99.90
29777;DHT22;16677;52.224;7.484;2024-01-30T01:10:27;5.90;99.90
29777;DHT22;16677;52.224;7.484;2024-01-30T01:12:55;5.90;99.90
29777;DHT22;16677;52.224;7.484;2024-01-30T01:15:22;6.00;99.90
29777;DHT22;16677;52.224;7.484;2024-01-30T01:17:50;6.00;99.90
29777;DHT22;16677;52.224;7.484;2024-01-30T01:20:17;6.10;99.90
29777;DHT22;16677;52.224;7.484;2024-01-30T01:22:44;6.20;99.90
29777;DHT22;16677;52.224;7.484;2024-01-30T01:25:11;6.30;99.90
29777;DHT22;16677;52.224;7.484;2024-01-30T01:27:38;6.30;99.90
29777;DHT22;16677;52.224;7.484;2024-01-30T01:30:10;6.40;99.90
29777;DHT22;16677;52.224;7.484;2024-01-30T01:32:38;6.40;99.90
29777;DHT22;16677;52.224;7.484;2024-01-30T01:35:05;6.40;99.90
29777;DHT22;16677;52.224;7.484;2024-01-30T01:37:32;6.50;99.90
29777;DHT22;16677;52.224;7.484;2024-01-30T01:39:59;6.60;99.90
29777;DHT22;16677;52.224;7.484;2024-01-30T01:42:26;6.50;99.90
29777;DHT22;16677;52.224;7.484;2024-01-30T01:44:53;6.50;99.90
29777;DHT22;16677;52.224;7.484;2024-01-30T01:47:20;6.60;99.90
29777;DHT22;16677;52.224;7.484;2024-01-30T01:49:47;6.70;99.90
29777;DHT22;16677;52.224;7.484;2024-01-30T01:52:14;6.70;99.90
29777;DHT22;16677;52.224;7.484;2024-01-30T01:54:42;6.60;99.90
29777;DHT22;16677;52.224;7.484;2024-01-30T01:57:09;6.70;99.90
29777;DHT22;16677;52.224;7.484;2024-01-30T01:59:36;6.70;99.90
29777;DHT22;16677;52.224;7.484;2024-01-30T02:02:03;6.70;99.90
29777;DHT22;16677;52.224;7.484;2024-01-30T02:04:30;6.80;99.90
29777;DHT22;16677;52.224;7.484;2024-01-30T02:06:57;6.80;99.90
29777;DHT22;16677;52.224;7.484;2024-01-30T02:09:24;6.80;99.90
29777;DHT22;16677;52.224;7.484;2024-01-30T02:11:51;6.80;99.90
29777;DHT22;16677;52.224;7.484;2024-01-30T02:14:17;6.80;99.90
29777;DHT22;16677;52.224;7.484;2024-01-30T02:16:44;6.80;99.90
29777;DHT22;16677;52.224;7.484;2024-01-30T02:19:11;6.80;99.90
29777;DHT22;16677;52.224;7.484;2024-01-30T02:21:39;6.80;99.90
29777;DHT22;16677;52.224;7.484;2024-01-30T02:24:06;6.70;99.90
29777;DHT22;16677;52.224;7.484;2024-01-30T02:26:32;6.70;99.90
29777;DHT22;16677;52.224;7.484;2024-01-30T02:28:59;6.70;99.90
29777;DHT22;16677;52.224;7.484;2024-01-30T02:31:26;6.70;99.90
29777;DHT22;16677;52.224;7.484;2024-01-30T02:33:53;6.70;99.90
29777;DHT22;16677;52.224;7.484;2024-01-30T02:36:22;6.70;99.90
29777;DHT22;16677;52.224;7.484;2024-01-30T02:38:49;6.60;99.90
29777;DHT22;16677;52.224;7.484;2024-01-30T02:41:16;6.40;99.90
29777;DHT22;16677;52.224;7.484;2024-01-30T02:43:43;6.50;99.90
29777;DHT22;16677;52.224;7.484;2024-01-30T02:46:10;6.50;99.90
29777;DHT22;16677;52.224;7.484;2024-01-30T02:48:37;6.40;99.90
29777;DHT22;16677;52.224;7.484;2024-01-30T02:51:05;6.30;99.90
29777;DHT22;16677;52.224;7.484;2024-01-30T02:53:32;6.30;99.90
29777;DHT22;16677;52.224;7.484;2024-01-30T02:56:00;6.30;99.90
29777;DHT22;16677;52.224;7.484;2024-01-30T02:58:27;6.30;99.90
29777;DHT22;16677;52.224;7.484;2024-01-30T03:00:54;6.20;99.90
29777;DHT22;16677;52.224;7.484;2024-01-30T03:03:21;6.20;99.90
29777;DHT22;16677;52.224;7.484;2024-01-30T03:05:49;6.20;99.90
29777;DHT22;16677;52.224;7.484;2024-01-30T03:08:16;6.20;99.90
29777;DHT22;16677;52.224;7.484;2024-01-30T03:10:43;6.20;99.90
29777;DHT22;16677;52.224;7.484;2024-01-30T03:13:10;6.20;99.90
29777;DHT22;16677;52.224;7.484;2024-01-30T03:15:36;6.10;99.90
29777;DHT22;16677;52.224;7.484;2024-01-30T03:18:04;6.20;99.90
29777;DHT22;16677;52.224;7.484;2024-01-30T03:20:31;6.10;99.90
29777;DHT22;16677;52.224;7.484;2024-01-30T03:22:59;6.00;99.90
29777;DHT22;16677;52.224;7.484;2024-01-30T03:25:26;5.90;99.90
29777;DHT22;16677;52.224;7.484;2024-01-30T03:27:53;6.00;99.90
29777;DHT22;16677;52.224;7.484;2024-01-30T03:30:20;5.90;99.90
29777;DHT22;16677;52.224;7.484;2024-01-30T03:32:47;5.90;99.90
29777;DHT22;16677;52.224;7.484;2024-01-30T03:35:14;5.90;99.90
29777;DHT22;16677;52.224;7.484;2024-01-30T03:37:41;5.80;99.90
29777;DHT22;16677;52.224;7.484;2024-01-30T03:40:09;5.90;99.90
29777;DHT22;16677;52.224;7.484;2024-01-30T03:42:36;5.70;99.90
29777;DHT22;16677;52.224;7.484;2024-01-30T03:45:03;5.80;99.90
29777;DHT22;16677;52.224;7.484;2024-01-30T03:47:30;5.80;99.90
29777;DHT22;16677;52.224;7.484;2024-01-30T03:49:57;5.70;99.90
29777;DHT22;16677;52.224;7.484;2024-01-30T03:52:24;5.70;99.90
29777;DHT22;16677;52.224;7.484;2024-01-30T03:54:51;5.60;99.90
29777;DHT22;16677;52.224;7.484;2024-01-30T03:57:20;5.60;99.90
29777;DHT22;16677;52.224;7.484;2024-01-30T03:59:48;5.60;99.90
29777;DHT22;16677;52.224;7.484;2024-01-30T04:02:15;5.60;99.90
29777;DHT22;16677;52.224;7.484;2024-01-30T04:04:42;5.50;99.90
29777;DHT22;16677;52.224;7.484;2024-01-30T04:07:09;5.50;99.90
29777;DHT22;16677;52.224;7.484;2024-01-30T04:09:36;5.50;99.90
29777;DHT22;16677;52.224;7.484;2024-01-30T04:12:03;5.60;99.90
29777;DHT22;16677;52.224;7.484;2024-01-30T04:14:30;5.50;99.90
29777;DHT22;16677;52.224;7.484;2024-01-30T04:16:57;5.50;99.90
29777;DHT22;16677;52.224;7.484;2024-01-30T04:19:24;5.50;99.90
29777;DHT22;16677;52.224;7.484;2024-01-30T04:21:51;5.50;99.90
29777;DHT22;16677;52.224;7.484;2024-01-30T04:24:18;5.50;99.90
29777;DHT22;16677;52.224;7.484;2024-01-30T04:26:45;5.40;99.90
29777;DHT22;16677;52.224;7.484;2024-01-30T04:29:12;5.50;99.90
29777;DHT22;16677;52.224;7.484;2024-01-30T04:31:39;5.50;99.90
29777;DHT22;16677;52.224;7.484;2024-01-30T04:34:06;5.40;99.90
29777;DHT22;16677;52.224;7.484;2024-01-30T04:36:33;5.50;99.90
29777;DHT22;16677;52.224;7.484;2024-01-30T04:39:03;5.40;99.90
29777;DHT22;16677;52.224;7.484;2024-01-30T04:41:30;5.50;99.90
29777;DHT22;16677;52.224;7.484;2024-01-30T04:43:58;5.50;99.90
29777;DHT22;16677;52.224;7.484;2024-01-30T04:46:26;5.60;99.90
29777;DHT22;16677;52.224;7.484;2024-01-30T04:48:53;5.50;99.90
29777;DHT22;16677;52.224;7.484;2024-01-30T04:51:20;5.60;99.90
29777;DHT22;16677;52.224;7.484;2024-01-30T04:53:47;5.70;99.90
29777;DHT22;16677;52.224;7.484;2024-01-30T04:56:14;5.80;99.90
29777;DHT22;16677;52.224;7.484;2024-01-30T04:58:41;5.90;99.90
29777;DHT22;16677;52.224;7.484;2024-01-30T05:01:08;6.00;99.90
29777;DHT22;16677;52.224;7.484;2024-01-30T05:03:35;6.00;99.90
29777;DHT22;16677;52.224;7.484;2024-01-30T05:06:02;6.00;99.90
29777;DHT22;16677;52.224;7.484;2024-01-30T05:08:29;6.00;99.90
29777;DHT22;16677;52.224;7.484;2024-01-30T05:10:56;6.10;99.90
29777;DHT22;16677;52.224;7.484;2024-01-30T05:13:23;6.10;99.90
29777;DHT22;16677;52.224;7.484;2024-01-30T05:15:50;6.10;99.90
29777;DHT22;16677;52.224;7.484;2024-01-30T05:18:17;6.10;99.90
29777;DHT22;16677;52.224;7.484;2024-01-30T05:20:44;6.20;99.90
29777;DHT22;16677;52.224;7.484;2024-01-30T05:23:11;6.10;99.90
29777;DHT22;16677;52.224;7.484;2024-01-30T05:25:40;6.10;99.90
29777;DHT22;16677;52.224;7.484;2024-01-30T05:28:07;6.10;99.90
29777;DHT22;16677;52.224;7.484;2024-01-30T05:30:34;6.10;99.90
29777;DHT22;16677;52.224;7.484;2024-01-30T05:33:04;6.10;99.90
29777;DHT22;16677;52.224;7.484;2024-01-30T05:35:31;6.10;99.90
29777;DHT22;16677;52.224;7.484;2024-01-30T05:37:58;6.20;99.90
29777;DHT22;16677;52.224;7.484;2024-01-30T05:40:32;6.20;99.90
29777;DHT22;16677;52.224;7.484;2024-01-30T05:42:59;6.10;99.90
29777;DHT22;16677;52.224;7.484;2024-01-30T05:45:28;6.10;99.90
29777;DHT22;16677;52.224;7.484;2024-01-30T05:47:55;6.20;99.90
29777;DHT22;16677;52.224;7.484;2024-01-30T05:50:22;6.20;99.90
29777;DHT22;16677;52.224;7.484;2024-01-30T05:52:50;6.20;99.90
29777;DHT22;16677;52.224;7.484;2024-01-30T05:55:17;6.20;99.90
29777;DHT22;16677;52.224;7.484;2024-01-30T05:57:44;6.20;99.90
29777;DHT22;16677;52.224;7.484;2024-01-30T06:00:11;6.20;99.90
29777;DHT22;16677;52.224;7.484;2024-01-30T06:02:38;6.20;99.90
29777;DHT22;16677;52.224;7.484;2024-01-30T06:05:05;6.10;99.90
29777;DHT22;16677;52.224;7.484;2024-01-30T06:07:32;6.10;99.90
29777;DHT22;16677;52.224;7.484;2024-01-30T06:10:02;6.10;99.90
29777;DHT22;16677;52.224;7.484;2024-01-30T06:12:30;6.20;99.90
29777;DHT22;16677;52.224;7.484;2024-01-30T06:17:25;6.20;99.90
29777;DHT22;16677;52.224;7.484;2024-01-30T06:19:51;6.20;99.90
29777;DHT22;16677;52.224;7.484;2024-01-30T06:22:18;6.20;99.90
29777;DHT22;16677;52.224;7.484;2024-01-30T06:24:46;6.20;99.90
29777;DHT22;16677;52.224;7.484;2024-01-30T06:27:15;6.10;99.90
29777;DHT22;16677;52.224;7.484;2024-01-30T06:29:45;6.10;99.90
29777;DHT22;16677;52.224;7.484;2024-01-30T06:32:12;6.10;99.90
29777;DHT22;16677;52.224;7.484;2024-01-30T06:34:40;6.10;99.90
29777;DHT22;16677;52.224;7.484;2024-01-30T06:37:07;6.10;99.90
29777;DHT22;16677;52.224;7.484;2024-01-30T06:39:34;6.10;99.90
29777;DHT22;16677;52.224;7.484;2024-01-30T06:42:01;6.10;99.90
29777;DHT22;16677;52.224;7.484;2024-01-30T06:44:28;6.10;99.90
29777;DHT22;16677;52.224;7.484;2024-01-30T06:46:58;6.10;99.90
29777;DHT22;16677;52.224;7.484;2024-01-30T06:49:25;6.20;99.90
29777;DHT22;16677;52.224;7.484;2024-01-30T06:51:52;6.20;99.90
29777;DHT22;16677;52.224;7.484;2024-01-30T06:54:19;6.20;99.90
29777;DHT22;16677;52.224;7.484;2024-01-30T06:56:46;6.20;99.90
29777;DHT22;16677;52.224;7.484;2024-01-30T06:59:13;6.20;99.90
29777;DHT22;16677;52.224;7.484;2024-01-30T07:01:40;6.20;99.90
29777;DHT22;16677;52.224;7.484;2024-01-30T07:04:07;6.20;99.90
29777;DHT22;16677;52.224;7.484;2024-01-30T07:06:34;6.30;99.90
29777;DHT22;16677;52.224;7.484;2024-01-30T07:09:01;6.30;99.90
29777;DHT22;16677;52.224;7.484;2024-01-30T07:11:28;6.40;99.90
29777;DHT22;16677;52.224;7.484;2024-01-30T07:13:55;6.40;99.90
29777;DHT22;16677;52.224;7.484;2024-01-30T07:16:22;6.40;99.90
29777;DHT22;16677;52.224;7.484;2024-01-30T07:18:49;6.40;99.90
29777;DHT22;16677;52.224;7.484;2024-01-30T07:21:17;6.40;99.90
29777;DHT22;16677;52.224;7.484;2024-01-30T07:23:44;6.50;99.90
29777;DHT22;16677;52.224;7.484;2024-01-30T07:26:10;6.50;99.90
29777;DHT22;16677;52.224;7.484;2024-01-30T07:28:37;6.50;99.90
29777;DHT22;16677;52.224;7.484;2024-01-30T07:31:05;6.50;99.90
29777;DHT22;16677;52.224;7.484;2024-01-30T07:33:33;6.70;99.90
29777;DHT22;16677;52.224;7.484;2024-01-30T07:36:00;6.60;99.90
29777;DHT22;16677;52.224;7.484;2024-01-30T07:38:27;6.60;99.90
29777;DHT22;16677;52.224;7.484;2024-01-30T07:40:54;6.70;99.90
29777;DHT22;16677;52.224;7.484;2024-01-30T07:43:21;6.60;99.90
29777;DHT22;16677;52.224;7.484;2024-01-30T07:45:48;6.70;99.90
29777;DHT22;16677;52.224;7.484;2024-01-30T07:48:15;6.70;99.90
29777;DHT22;16677;52.224;7.484;2024-01-30T07:50:42;6.70;99.90
29777;DHT22;16677;52.224;7.484;2024-01-30T07:53:09;6.70;99.90
29777;DHT22;16677;52.224;7.484;2024-01-30T07:55:36;6.80;99.90
29777;DHT22;16677;52.224;7.484;2024-01-30T07:58:03;6.80;99.90
29777;DHT22;16677;52.224;7.484;2024-01-30T08:00:31;6.90;98.10
29777;DHT22;16677;52.224;7.484;2024-01-30T08:02:58;6.90;92.30
29777;DHT22;16677;52.224;7.484;2024-01-30T08:05:25;6.90;87.10
29777;DHT22;16677;52.224;7.484;2024-01-30T08:07:52;7.00;88.00
29777;DHT22;16677;52.224;7.484;2024-01-30T08:10:19;7.00;71.00
29777;DHT22;16677;52.224;7.484;2024-01-30T08:12:47;7.10;59.90
29777;DHT22;16677;52.224;7.484;2024-01-30T08:15:14;7.10;56.60
29777;DHT22;16677;52.224;7.484;2024-01-30T08:17:41;7.10;55.70
29777;DHT22;16677;52.224;7.484;2024-01-30T08:20:08;7.10;55.70
29777;DHT22;16677;52.224;7.484;2024-01-30T08:22:38;7.10;48.90
29777;DHT22;16677;52.224;7.484;2024-01-30T08:25:05;7.20;47.00
29777;DHT22;16677;52.224;7.484;2024-01-30T08:27:32;7.20;41.10
29777;DHT22;16677;52.224;7.484;2024-01-30T08:29:59;7.30;35.70
29777;DHT22;16677;52.224;7.484;2024-01-30T08:32:26;7.30;31.50
29777;DHT22;16677;52.224;7.484;2024-01-30T08:34:53;7.30;34.20
29777;DHT22;16677;52.224;7.484;2024-01-30T08:37:20;7.40;33.10
29777;DHT22;16677;52.224;7.484;2024-01-30T08:39:47;7.40;30.00
29777;DHT22;16677;52.224;7.484;2024-01-30T08:42:14;7.50;26.80
29777;DHT22;16677;52.224;7.484;2024-01-30T08:44:41;7.50;24.50
29777;DHT22;16677;52.224;7.484;2024-01-30T08:47:08;7.50;23.20
29777;DHT22;16677;52.224;7.484;2024-01-30T08:49:35;7.60;12.70
29777;DHT22;16677;52.224;7.484;2024-01-30T08:52:02;7.70;2.00
29777;DHT22;16677;52.224;7.484;2024-01-30T08:54:29;7.70;1.00
29777;DHT22;16677;52.224;7.484;2024-01-30T08:56:56;7.80;1.00
29777;DHT22;16677;52.224;7.484;2024-01-30T08:59:25;7.80;1.00
29777;DHT22;16677;52.224;7.484;2024-01-30T09:01:52;7.90;1.00
29777;DHT22;16677;52.224;7.484;2024-01-30T09:04:29;7.90;1.00
29777;DHT22;16677;52.224;7.484;2024-01-30T09:06:56;7.90;1.00
29777;DHT22;16677;52.224;7.484;2024-01-30T09:09:23;8.00;1.00
29777;DHT22;16677;52.224;7.484;2024-01-30T09:11:50;8.00;1.00
29777;DHT22;16677;52.224;7.484;2024-01-30T09:14:16;8.10;1.00
29777;DHT22;16677;52.224;7.484;2024-01-30T09:16:43;8.20;1.00
29777;DHT22;16677;52.224;7.484;2024-01-30T09:19:10;8.20;1.00
29777;DHT22;16677;52.224;7.484;2024-01-30T09:21:37;8.20;1.00
29777;DHT22;16677;52.224;7.484;2024-01-30T09:24:04;8.30;1.00
29777;DHT22;16677;52.224;7.484;2024-01-30T09:26:31;8.30;1.00
29777;DHT22;16677;52.224;7.484;2024-01-30T09:28:58;8.30;1.00
29777;DHT22;16677;52.224;7.484;2024-01-30T09:31:25;8.40;1.00
29777;DHT22;16677;52.224;7.484;2024-01-30T09:33:52;8.50;1.00
29777;DHT22;16677;52.224;7.484;2024-01-30T09:36:21;8.60;1.00
29777;DHT22;16677;52.224;7.484;2024-01-30T09:38:48;8.70;1.00
29777;DHT22;16677;52.224;7.484;2024-01-30T09:46:20;8.90;1.00
29777;DHT22;16677;52.224;7.484;2024-01-30T09:48:50;8.90;1.00
29777;DHT22;16677;52.224;7.484;2024-01-30T09:51:21;9.20;1.00
29777;DHT22;16677;52.224;7.484;2024-01-30T09:53:49;9.10;1.00
29777;DHT22;16677;52.224;7.484;2024-01-30T09:56:16;9.10;1.00
29777;DHT22;16677;52.224;7.484;2024-01-30T09:58:43;9.30;1.00
29777;DHT22;16677;52.224;7.484;2024-01-30T10:01:10;9.20;1.00
29777;DHT22;16677;52.224;7.484;2024-01-30T10:03:37;9.30;1.00
29777;DHT22;16677;52.224;7.484;2024-01-30T10:06:04;9.40;1.00
29777;DHT22;16677;52.224;7.484;2024-01-30T10:08:32;9.40;1.00
29777;DHT22;16677;52.224;7.484;2024-01-30T10:10:59;9.50;1.00
29777;DHT22;16677;52.224;7.484;2024-01-30T10:13:26;9.60;1.00
29777;DHT22;16677;52.224;7.484;2024-01-30T10:15:53;9.60;1.00
29777;DHT22;16677;52.224;7.484;2024-01-30T10:18:24;9.70;1.00
29777;DHT22;16677;52.224;7.484;2024-01-30T10:20:51;9.80;1.00
29777;DHT22;16677;52.224;7.484;2024-01-30T10:23:18;9.90;1.00
29777;DHT22;16677;52.224;7.484;2024-01-30T10:25:46;10.00;1.00
29777;DHT22;16677;52.224;7.484;2024-01-30T10:28:13;10.10;1.00
29777;DHT22;16677;52.224;7.484;2024-01-30T10:30:39;10.10;1.00
29777;DHT22;16677;52.224;7.484;2024-01-30T10:33:06;10.20;99.90
29777;DHT22;16677;52.224;7.484;2024-01-30T10:35:33;10.30;1.00
29777;DHT22;16677;52.224;7.484;2024-01-30T10:38:00;10.40;1.00
29777;DHT22;16677;52.224;7.484;2024-01-30T10:40:28;10.60;1.00
29777;DHT22;16677;52.224;7.484;2024-01-30T10:42:55;10.70;99.90
29777;DHT22;16677;52.224;7.484;2024-01-30T10:45:23;10.90;1.00
29777;DHT22;16677;52.224;7.484;2024-01-30T10:47:55;11.10;99.90
29777;DHT22;16677;52.224;7.484;2024-01-30T10:50:25;11.10;57.00
29777;DHT22;16677;52.224;7.484;2024-01-30T10:52:53;11.20;1.00
29777;DHT22;16677;52.224;7.484;2024-01-30T10:55:21;11.30;1.00
29777;DHT22;16677;52.224;7.484;2024-01-30T10:57:48;11.40;1.00
29777;DHT22;16677;52.224;7.484;2024-01-30T11:00:16;11.50;99.90
29777;DHT22;16677;52.224;7.484;2024-01-30T11:02:43;11.60;1.00
29777;DHT22;16677;52.224;7.484;2024-01-30T11:05:11;11.80;99.90
29777;DHT22;16677;52.224;7.484;2024-01-30T11:07:38;12.00;27.50
29777;DHT22;16677;52.224;7.484;2024-01-30T11:10:06;12.20;94.50
29777;DHT22;16677;52.224;7.484;2024-01-30T11:12:39;12.30;1.00
29777;DHT22;16677;52.224;7.484;2024-01-30T11:15:12;12.30;1.00
29777;DHT22;16677;52.224;7.484;2024-01-30T11:20:09;12.30;99.90
29777;DHT22;16677;52.224;7.484;2024-01-30T11:22:36;12.30;46.70
29777;DHT22;16677;52.224;7.484;2024-01-30T11:25:03;12.30;99.90
29777;DHT22;16677;52.224;7.484;2024-01-30T11:27:30;12.30;1.00
29777;DHT22;16677;52.224;7.484;2024-01-30T11:30:02;12.20;1.00
29777;DHT22;16677;52.224;7.484;2024-01-30T11:32:29;12.10;1.00
29777;DHT22;16677;52.224;7.484;2024-01-30T11:34:56;12.10;1.00
29777;DHT22;16677;52.224;7.484;2024-01-30T11:37:25;12.10;1.00
29777;DHT22;16677;52.224;7.484;2024-01-30T11:39:53;12.10;1.00
29777;DHT22;16677;52.224;7.484;2024-01-30T11:42:22;12.10;99.90
29777;DHT22;16677;52.224;7.484;2024-01-30T11:44:51;12.10;99.90
29777;DHT22;16677;52.224;7.484;2024-01-30T11:47:18;12.20;99.90
29777;DHT22;16677;52.224;7.484;2024-01-30T11:49:45;12.20;99.90
29777;DHT22;16677;52.224;7.484;2024-01-30T11:52:12;12.10;1.00
29777;DHT22;16677;52.224;7.484;2024-01-30T11:54:40;12.10;1.00
29777;DHT22;16677;52.224;7.484;2024-01-30T11:57:07;12.20;99.90
29777;DHT22;16677;52.224;7.484;2024-01-30T11:59:33;12.20;99.90
29777;DHT22;16677;52.224;7.484;2024-01-30T12:02:00;12.20;99.90
29777;DHT22;16677;52.224;7.484;2024-01-30T12:04:28;12.20;99.90
29777;DHT22;16677;52.224;7.484;2024-01-30T12:06:56;12.20;1.00
29777;DHT22;16677;52.224;7.484;2024-01-30T12:09:23;12.20;1.00
29777;DHT22;16677;52.224;7.484;2024-01-30T12:11:50;12.20;1.00
29777;DHT22;16677;52.224;7.484;2024-01-30T12:14:16;12.20;1.00
29777;DHT22;16677;52.224;7.484;2024-01-30T12:16:47;12.20;1.00
29777;DHT22;16677;52.224;7.484;2024-01-30T12:19:21;12.20;51.20
29777;DHT22;16677;52.224;7.484;2024-01-30T12:21:53;12.20;67.60
29777;DHT22;16677;52.224;7.484;2024-01-30T12:24:20;12.20;99.90
29777;DHT22;16677;52.224;7.484;2024-01-30T12:26:50;12.20;26.40
29777;DHT22;16677;52.224;7.484;2024-01-30T12:29:19;12.10;26.30
29777;DHT22;16677;52.224;7.484;2024-01-30T12:31:47;12.10;99.90
29777;DHT22;16677;52.224;7.484;2024-01-30T12:34:14;12.00;99.90
29777;DHT22;16677;52.224;7.484;2024-01-30T12:36:43;12.00;1.00
29777;DHT22;16677;52.224;7.484;2024-01-30T12:39:11;12.00;1.00
29777;DHT22;16677;52.224;7.484;2024-01-30T12:41:38;12.00;99.90
29777;DHT22;16677;52.224;7.484;2024-01-30T12:44:05;12.10;1.00
29777;DHT22;16677;52.224;7.484;2024-01-30T12:46:34;12.10;99.90
29777;DHT22;16677;52.224;7.484;2024-01-30T12:49:01;12.20;1.00
29777;DHT22;16677;52.224;7.484;2024-01-30T12:51:28;12.10;99.90
29777;DHT22;16677;52.224;7.484;2024-01-30T12:53:55;12.20;99.90
29777;DHT22;16677;52.224;7.484;2024-01-30T12:56:22;12.20;29.80
29777;DHT22;16677;52.224;7.484;2024-01-30T12:58:49;12.30;99.90
29777;DHT22;16677;52.224;7.484;2024-01-30T13:01:18;12.40;99.90
29777;DHT22;16677;52.224;7.484;2024-01-30T13:03:45;12.40;1.00
29777;DHT22;16677;52.224;7.484;2024-01-30T13:06:12;12.50;1.00
29777;DHT22;16677;52.224;7.484;2024-01-30T13:08:39;12.40;1.00
29777;DHT22;16677;52.224;7.484;2024-01-30T13:11:06;12.40;7.50
29777;DHT22;16677;52.224;7.484;2024-01-30T13:13:38;12.40;1.00
29777;DHT22;16677;52.224;7.484;2024-01-30T13:16:06;12.30;1.00
29777;DHT22;16677;52.224;7.484;2024-01-30T13:18:33;12.20;1.00
29777;DHT22;16677;52.224;7.484;2024-01-30T13:21:00;12.20;99.90
29777;DHT22;16677;52.224;7.484;2024-01-30T13:23:26;12.30;1.00
29777;DHT22;16677;52.224;7.484;2024-01-30T13:25:53;12.40;1.00
29777;DHT22;16677;52.224;7.484;2024-01-30T13:28:24;12.50;1.00
29777;DHT22;16677;52.224;7.484;2024-01-30T13:30:52;12.50;99.90
29777;DHT22;16677;52.224;7.484;2024-01-30T13:33:19;12.50;1.00
29777;DHT22;16677;52.224;7.484;2024-01-30T13:35:46;12.40;1.00
29777;DHT22;16677;52.224;7.484;2024-01-30T13:38:13;12.40;1.00
29777;DHT22;16677;52.224;7.484;2024-01-30T13:40:40;12.40;1.00
29777;DHT22;16677;52.224;7.484;2024-01-30T13:43:07;12.30;1.00
29777;DHT22;16677;52.224;7.484;2024-01-30T13:45:34;12.30;99.90
29777;DHT22;16677;52.224;7.484;2024-01-30T13:48:01;12.20;99.90
29777;DHT22;16677;52.224;7.484;2024-01-30T13:50:29;12.10;99.90
29777;DHT22;16677;52.224;7.484;2024-01-30T13:52:57;12.20;17.30
29777;DHT22;16677;52.224;7.484;2024-01-30T13:55:24;12.10;1.00
29777;DHT22;16677;52.224;7.484;2024-01-30T13:57:51;12.10;1.00
29777;DHT22;16677;52.224;7.484;2024-01-30T14:00:19;12.10;99.90
29777;DHT22;16677;52.224;7.484;2024-01-30T14:02:49;12.20;99.90
29777;DHT22;16677;52.224;7.484;2024-01-30T14:05:15;12.20;1.00
29777;DHT22;16677;52.224;7.484;2024-01-30T14:07:43;12.10;1.00
29777;DHT22;16677;52.224;7.484;2024-01-30T14:10:10;12.10;1.00
29777;DHT22;16677;52.224;7.484;2024-01-30T14:12:43;12.00;1.00
29777;DHT22;16677;52.224;7.484;2024-01-30T14:15:11;12.00;1.00
29777;DHT22;16677;52.224;7.484;2024-01-30T14:17:48;12.00;32.10
29777;DHT22;16677;52.224;7.484;2024-01-30T14:20:17;12.00;99.90
29777;DHT22;16677;52.224;7.484;2024-01-30T14:22:44;12.00;1.00
29777;DHT22;16677;52.224;7.484;2024-01-30T14:25:11;11.90;99.90
29777;DHT22;16677;52.224;7.484;2024-01-30T14:27:39;11.90;99.90
29777;DHT22;16677;52.224;7.484;2024-01-30T14:30:06;12.00;99.90
29777;DHT22;16677;52.224;7.484;2024-01-30T14:32:34;12.00;99.90
29777;DHT22;16677;52.224;7.484;2024-01-30T14:35:01;12.00;99.90
29777;DHT22;16677;52.224;7.484;2024-01-30T14:37:29;12.10;99.90
29777;DHT22;16677;52.224;7.484;2024-01-30T14:39:56;12.00;99.90
29777;DHT22;16677;52.224;7.484;2024-01-30T14:42:23;12.00;98.50
29777;DHT22;16677;52.224;7.484;2024-01-30T14:44:53;12.00;99.90
29777;DHT22;16677;52.224;7.484;2024-01-30T14:47:20;12.00;1.00
29777;DHT22;16677;52.224;7.484;2024-01-30T14:49:47;11.90;1.00
29777;DHT22;16677;52.224;7.484;2024-01-30T14:52:14;12.00;99.90
29777;DHT22;16677;52.224;7.484;2024-01-30T14:54:42;12.00;1.00
29777;DHT22;16677;52.224;7.484;2024-01-30T14:57:10;11.90;99.90
29777;DHT22;16677;52.224;7.484;2024-01-30T14:59:37;11.90;99.90
29777;DHT22;16677;52.224;7.484;2024-01-30T15:02:04;11.90;99.90
29777;DHT22;16677;52.224;7.484;2024-01-30T15:04:31;11.80;82.50
29777;DHT22;16677;52.224;7.484;2024-01-30T15:06:58;11.80;99.90
29777;DHT22;16677;52.224;7.484;2024-01-30T15:09:25;11.80;1.00
29777;DHT22;16677;52.224;7.484;2024-01-30T15:11:56;11.80;1.00
29777;DHT22;16677;52.224;7.484;2024-01-30T15:14:23;11.70;8.00
29777;DHT22;16677;52.224;7.484;2024-01-30T15:16:50;11.70;1.00
29777;DHT22;16677;52.224;7.484;2024-01-30T15:19:17;11.50;1.00
29777;DHT22;16677;52.224;7.484;2024-01-30T15:21:44;11.50;99.90
29777;DHT22;16677;52.224;7.484;2024-01-30T15:24:11;11.40;1.00
29777;DHT22;16677;52.224;7.484;2024-01-30T15:26:41;11.40;99.90
29777;DHT22;16677;52.224;7.484;2024-01-30T15:29:08;11.30;46.50
29777;DHT22;16677;52.224;7.484;2024-01-30T15:31:38;11.20;1.00
29777;DHT22;16677;52.224;7.484;2024-01-30T15:34:05;11.10;1.00
29777;DHT22;16677;52.224;7.484;2024-01-30T15:36:32;11.10;99.90
29777;DHT22;16677;52.224;7.484;2024-01-30T15:38:59;11.00;1.00
29777;DHT22;16677;52.224;7.484;2024-01-30T15:41:27;10.90;1.00
29777;DHT22;16677;52.224;7.484;2024-01-30T15:43:54;10.90;1.00
29777;DHT22;16677;52.224;7.484;2024-01-30T15:46:21;10.70;1.00
29777;DHT22;16677;52.224;7.484;2024-01-30T15:48:51;10.60;1.00
29777;DHT22;16677;52.224;7.484;2024-01-30T15:51:17;10.50;1.00
29777;DHT22;16677;52.224;7.484;2024-01-30T15:53:45;10.40;1.00
29777;DHT22;16677;52.224;7.484;2024-01-30T15:56:12;10.30;28.20